Pelly, Canada
Current Conditions -  °F | °C
As of 7:00 PM on Tuesday 21 Oct 2014 (Local Time) from CYQV Reporting Station
Clear Clear  
Wind Chill: 55°   Ceiling: Unl
Heat Index: 55°   Visibility: 9mi
Dew Point: 43°   Wind: 10mph
Humidity: 63%   Direction: 140°SE
Pressure: 29.61"   Gusts: NA
Location:  51.87°N, 101.92°W
Report Text: CYQV 220100Z AUTO 14009KT 9SM CLR 13/06 A2961 RMK SLP040 DENSITY ALT 2000FT
Loading
Personal Weather Stations






























Interactive Weather Map
Tropical Storm Tracking
New forecast layout! Learn more

10-Day Weather Forecast

Advertisements
Track Severe Weather on mobile